createdAt,value
2019-05-26T00:00:12.595Z,0.40
2019-05-26T00:02:41.006Z,0.63
2019-05-26T00:05:09.262Z,0.47
2019-05-26T00:07:37.822Z,0.30
2019-05-26T00:10:08.862Z,0.67
2019-05-26T00:12:37.183Z,0.60
2019-05-26T00:15:06.079Z,0.60
2019-05-26T00:17:34.342Z,0.60
2019-05-26T00:20:03.001Z,0.50
2019-05-26T00:22:31.252Z,0.43
2019-05-26T00:24:59.531Z,0.50
2019-05-26T00:27:27.802Z,0.63
2019-05-26T00:29:56.067Z,0.60
2019-05-26T00:32:24.346Z,0.50
2019-05-26T00:34:52.619Z,0.60
2019-05-26T00:37:20.926Z,0.50
2019-05-26T00:39:49.232Z,0.60
2019-05-26T00:42:17.519Z,0.50
2019-05-26T00:44:45.770Z,0.50
2019-05-26T00:47:14.076Z,0.40
2019-05-26T00:49:42.332Z,0.60
2019-05-26T00:52:10.601Z,0.43
2019-05-26T00:54:38.873Z,0.60
2019-05-26T00:57:07.183Z,0.50
2019-05-26T00:59:35.432Z,0.63
2019-05-26T01:02:03.703Z,0.40
2019-05-26T01:04:32.031Z,0.43
2019-05-26T01:07:00.323Z,0.50
2019-05-26T01:09:28.668Z,0.40
2019-05-26T01:11:56.931Z,0.47
2019-05-26T01:14:25.199Z,0.43
2019-05-26T01:16:55.792Z,0.53
2019-05-26T01:19:23.458Z,0.70
2019-05-26T01:21:51.732Z,0.60
2019-05-26T01:24:19.979Z,0.70
2019-05-26T01:26:48.246Z,0.60
2019-05-26T01:29:16.499Z,0.60
2019-05-26T01:31:44.766Z,0.57
2019-05-26T01:34:13.030Z,0.60
2019-05-26T01:36:41.307Z,0.50
2019-05-26T01:39:09.551Z,0.43
2019-05-26T01:41:37.804Z,0.50
2019-05-26T01:44:06.076Z,0.40
2019-05-26T01:46:34.498Z,0.60
2019-05-26T01:49:02.763Z,0.60
2019-05-26T01:51:31.020Z,0.60
2019-05-26T01:53:59.287Z,0.50
2019-05-26T01:56:27.542Z,0.50
2019-05-26T01:58:56.099Z,0.40
2019-05-26T02:01:24.382Z,0.60
2019-05-26T02:03:52.896Z,0.73
2019-05-26T02:06:21.151Z,0.73
2019-05-26T02:08:49.418Z,0.40
2019-05-26T02:11:17.702Z,0.50
2019-05-26T02:13:47.531Z,0.60
2019-05-26T02:16:15.791Z,0.73
2019-05-26T02:18:45.346Z,0.43
2019-05-26T02:21:14.931Z,0.27
2019-05-26T02:23:43.351Z,0.70
2019-05-26T02:26:11.594Z,0.43
2019-05-26T02:28:39.866Z,0.50
2019-05-26T02:31:08.120Z,0.50
2019-05-26T02:33:36.710Z,0.80
2019-05-26T02:36:04.965Z,0.50
2019-05-26T02:38:33.564Z,0.40
2019-05-26T02:41:01.834Z,0.73
2019-05-26T02:43:30.163Z,0.47
2019-05-26T02:45:58.420Z,0.50
2019-05-26T02:48:27.332Z,0.70
2019-05-26T02:50:55.581Z,0.43
2019-05-26T02:53:24.836Z,0.40
2019-05-26T02:55:53.294Z,0.57
2019-05-26T02:58:21.571Z,0.87
2019-05-26T03:00:49.823Z,0.63
2019-05-26T03:03:18.105Z,0.50
2019-05-26T03:05:46.420Z,0.30
2019-05-26T03:08:15.148Z,0.50
2019-05-26T03:10:43.415Z,0.60
2019-05-26T03:13:15.208Z,0.43
2019-05-26T03:15:44.993Z,0.50
2019-05-26T03:18:13.328Z,0.40
2019-05-26T03:20:41.596Z,0.50
2019-05-26T03:23:09.851Z,0.40
2019-05-26T03:25:38.191Z,0.50
2019-05-26T03:28:07.196Z,0.50
2019-05-26T03:30:35.995Z,0.67
2019-05-26T03:33:04.681Z,0.70
2019-05-26T03:35:33.055Z,0.87
2019-05-26T03:38:01.440Z,0.40
2019-05-26T03:40:29.724Z,0.53
2019-05-26T03:42:58.342Z,0.40
2019-05-26T03:45:41.866Z,0.47
2019-05-26T03:48:10.128Z,0.60
2019-05-26T03:50:38.399Z,0.33
2019-05-26T03:53:06.793Z,0.40
2019-05-26T03:55:35.202Z,0.60
2019-05-26T03:58:03.459Z,0.50
2019-05-26T04:00:31.718Z,1.30
2019-05-26T04:03:00.558Z,0.50
2019-05-26T04:05:28.845Z,0.50
2019-05-26T04:07:57.176Z,0.63
2019-05-26T04:10:25.433Z,0.30
2019-05-26T04:12:53.694Z,0.50
2019-05-26T04:15:21.964Z,0.40
2019-05-26T04:17:50.297Z,0.50
2019-05-26T04:20:18.635Z,0.40
2019-05-26T04:22:46.889Z,0.50
2019-05-26T04:25:15.147Z,0.60
2019-05-26T04:27:43.407Z,0.53
2019-05-26T04:30:12.354Z,0.60
2019-05-26T04:32:40.625Z,0.53
2019-05-26T04:35:08.956Z,0.30
2019-05-26T04:37:37.210Z,0.40
2019-05-26T04:40:25.635Z,0.33
2019-05-26T04:42:38.466Z,0.70
2019-05-26T04:45:07.462Z,0.70
2019-05-26T04:47:35.731Z,0.50
2019-05-26T04:50:05.130Z,0.60
2019-05-26T04:52:33.420Z,0.47
2019-05-26T04:55:01.678Z,0.40
2019-05-26T04:57:30.455Z,0.30
2019-05-26T04:59:59.279Z,0.40
2019-05-26T05:02:27.547Z,0.97
2019-05-26T05:04:56.108Z,0.53
2019-05-26T05:07:28.074Z,0.40
2019-05-26T05:09:54.351Z,0.87
2019-05-26T05:12:22.615Z,0.30
2019-05-26T05:14:50.946Z,0.40
2019-05-26T05:17:19.978Z,0.50
2019-05-26T05:19:48.395Z,0.40
2019-05-26T05:22:16.660Z,0.47
2019-05-26T05:24:44.911Z,0.50
2019-05-26T05:27:14.547Z,0.40
2019-05-26T05:29:42.871Z,0.70
2019-05-26T05:32:11.135Z,0.53
2019-05-26T05:34:39.395Z,0.70
2019-05-26T05:37:08.226Z,0.60
2019-05-26T05:39:36.497Z,0.40
2019-05-26T05:42:04.818Z,0.40
2019-05-26T05:44:33.071Z,0.50
2019-05-26T05:47:01.337Z,0.47
2019-05-26T05:49:30.967Z,0.50
2019-05-26T05:51:59.227Z,0.43
2019-05-26T05:54:27.482Z,0.83
2019-05-26T05:56:55.937Z,0.43
2019-05-26T05:59:24.380Z,0.40
2019-05-26T06:01:52.639Z,0.30
2019-05-26T06:04:21.370Z,0.33
2019-05-26T06:06:49.626Z,0.30
2019-05-26T06:09:17.896Z,0.40
2019-05-26T06:11:46.723Z,0.40
2019-05-26T06:14:16.371Z,0.40
2019-05-26T06:16:44.623Z,0.40
2019-05-26T06:19:12.895Z,0.40
2019-05-26T06:21:41.155Z,0.40
2019-05-26T06:24:09.414Z,0.30
2019-05-26T06:26:37.673Z,0.40
2019-05-26T06:29:05.938Z,0.63
2019-05-26T06:31:34.247Z,0.50
2019-05-26T06:34:02.637Z,0.40
2019-05-26T06:36:31.018Z,0.83
2019-05-26T06:38:59.289Z,0.30
2019-05-26T06:41:33.424Z,0.20
2019-05-26T06:43:57.527Z,0.30
2019-05-26T06:46:25.786Z,1.47
2019-05-26T06:48:54.051Z,0.40
2019-05-26T06:51:22.314Z,0.50
2019-05-26T06:53:50.587Z,0.40
2019-05-26T06:56:18.836Z,0.30
2019-05-26T06:58:47.113Z,0.37
2019-05-26T07:01:15.439Z,0.43
2019-05-26T07:03:44.383Z,0.47
2019-05-26T07:06:12.635Z,0.30
2019-05-26T07:08:40.894Z,0.53
2019-05-26T07:11:09.159Z,0.40
2019-05-26T07:13:37.673Z,0.47
2019-05-26T07:16:06.002Z,0.60
2019-05-26T07:18:34.262Z,0.50
2019-05-26T07:21:02.528Z,0.33
2019-05-26T07:23:30.778Z,0.40
2019-05-26T07:25:59.615Z,0.50
2019-05-26T07:28:27.866Z,0.50
2019-05-26T07:30:56.140Z,0.53
2019-05-26T07:33:24.391Z,0.30
2019-05-26T07:35:52.654Z,0.30
2019-05-26T07:38:20.906Z,0.33
2019-05-26T07:40:49.171Z,0.37
2019-05-26T07:43:17.426Z,0.40
2019-05-26T07:45:45.697Z,0.30
2019-05-26T07:48:14.125Z,0.50
2019-05-26T07:50:42.386Z,0.60
2019-05-26T07:53:10.663Z,0.40
2019-05-26T07:55:38.983Z,0.30
2019-05-26T07:58:07.247Z,0.30
2019-05-26T08:00:35.516Z,0.43
2019-05-26T08:03:03.827Z,0.40
2019-05-26T08:05:32.086Z,0.50
2019-05-26T08:08:12.238Z,0.30
2019-05-26T08:10:31.709Z,0.47
2019-05-26T08:12:59.971Z,0.40
2019-05-26T08:15:28.245Z,0.50
2019-05-26T08:17:56.531Z,0.50
2019-05-26T08:20:24.830Z,0.30
2019-05-26T08:22:53.371Z,0.50
2019-05-26T08:25:21.649Z,0.30
2019-05-26T08:27:49.910Z,0.30
2019-05-26T08:30:18.831Z,0.40
2019-05-26T08:32:47.099Z,0.40
2019-05-26T08:35:15.362Z,0.50
2019-05-26T08:37:43.622Z,0.27
2019-05-26T08:40:18.177Z,0.30
2019-05-26T08:42:49.958Z,0.40
2019-05-26T08:45:21.638Z,0.50
2019-05-26T08:47:49.242Z,0.30
2019-05-26T08:50:17.676Z,0.50
2019-05-26T08:52:45.935Z,0.30
2019-05-26T08:55:14.194Z,0.73
2019-05-26T08:57:42.463Z,0.40
2019-05-26T09:00:10.714Z,0.30
2019-05-26T09:02:39.006Z,0.60
2019-05-26T09:05:07.536Z,0.50
2019-05-26T09:07:35.809Z,0.50
2019-05-26T09:10:05.129Z,0.40
2019-05-26T09:12:33.722Z,0.30
2019-05-26T09:15:01.980Z,1.20
2019-05-26T09:17:30.256Z,0.43
2019-05-26T09:19:58.865Z,0.70
2019-05-26T09:22:27.443Z,0.23
2019-05-26T09:24:55.696Z,0.50
2019-05-26T09:27:23.975Z,0.40
2019-05-26T09:29:52.230Z,0.70
2019-05-26T09:32:20.492Z,0.57
2019-05-26T09:34:48.848Z,0.50
2019-05-26T09:37:17.200Z,0.40
2019-05-26T09:39:45.460Z,0.40
2019-05-26T09:42:13.711Z,0.50
2019-05-26T09:44:41.984Z,0.30
2019-05-26T09:47:10.902Z,0.40
2019-05-26T09:49:39.487Z,0.40
2019-05-26T09:52:07.749Z,0.40
2019-05-26T09:54:36.011Z,0.50
2019-05-26T09:57:04.342Z,0.50
2019-05-26T09:59:32.609Z,0.40
2019-05-26T10:02:00.940Z,0.60
2019-05-26T10:04:29.317Z,0.47
2019-05-26T10:06:57.566Z,0.40
2019-05-26T10:09:25.845Z,0.80
2019-05-26T10:11:54.568Z,0.40
2019-05-26T10:14:22.834Z,0.80
2019-05-26T10:16:51.663Z,0.57
2019-05-26T10:19:19.929Z,0.37
2019-05-26T10:21:48.184Z,0.40
2019-05-26T10:24:16.462Z,0.40
2019-05-26T10:26:45.047Z,0.70
2019-05-26T10:29:15.975Z,3.47
2019-05-26T10:31:44.776Z,1.63
2019-05-26T10:34:13.806Z,2.23
2019-05-26T10:36:42.203Z,4.00
2019-05-26T10:39:10.484Z,1.17
2019-05-26T10:41:38.808Z,2.33
2019-05-26T10:44:07.086Z,8.03
2019-05-26T10:46:35.346Z,5.37
2019-05-26T10:49:03.615Z,6.07
2019-05-26T10:51:31.875Z,1.40
2019-05-26T10:54:00.123Z,2.07
2019-05-26T10:56:28.400Z,2.37
2019-05-26T10:58:56.650Z,4.17
2019-05-26T11:01:24.955Z,6.03
2019-05-26T11:03:53.209Z,6.13
2019-05-26T11:06:22.047Z,6.00
2019-05-26T11:08:50.294Z,3.20
2019-05-26T11:11:19.226Z,6.40
2019-05-26T11:14:01.821Z,6.63
2019-05-26T11:16:18.146Z,5.47
2019-05-26T11:18:46.400Z,10.37
2019-05-26T11:21:14.669Z,5.50
2019-05-26T11:23:42.925Z,5.67
2019-05-26T11:26:11.199Z,4.87
2019-05-26T11:28:39.450Z,7.07
2019-05-26T11:31:07.730Z,6.57
2019-05-26T11:33:36.001Z,5.13
2019-05-26T11:36:04.285Z,6.40
2019-05-26T11:38:33.682Z,3.90
2019-05-26T11:41:02.281Z,5.00
2019-05-26T11:43:30.541Z,7.43
2019-05-26T11:45:58.807Z,4.17
2019-05-26T11:48:27.063Z,5.93
2019-05-26T11:50:55.322Z,3.73
2019-05-26T11:53:23.579Z,4.57
2019-05-26T11:55:51.850Z,4.80
2019-05-26T11:58:20.192Z,4.30
2019-05-26T12:00:48.453Z,2.70
2019-05-26T12:03:16.703Z,4.43
2019-05-26T12:05:45.271Z,3.57
2019-05-26T12:08:13.535Z,6.43
2019-05-26T12:10:41.791Z,6.90
2019-05-26T12:13:10.137Z,3.70
2019-05-26T12:15:38.396Z,1.20
2019-05-26T12:18:06.727Z,4.60
2019-05-26T12:20:35.063Z,3.57
2019-05-26T12:23:03.328Z,3.73
2019-05-26T12:25:31.579Z,5.53
2019-05-26T12:27:59.844Z,3.50
2019-05-26T12:30:28.103Z,5.43
2019-05-26T12:32:56.383Z,6.80
2019-05-26T12:35:26.835Z,5.10
2019-05-26T12:37:55.678Z,5.13
2019-05-26T12:40:23.936Z,4.77
2019-05-26T12:42:52.202Z,4.40
2019-05-26T12:45:20.458Z,3.90
2019-05-26T12:47:48.962Z,4.57
2019-05-26T12:50:17.221Z,8.03
2019-05-26T12:52:45.566Z,6.73
2019-05-26T12:55:13.818Z,5.77
2019-05-26T12:57:42.091Z,5.43
2019-05-26T13:00:10.431Z,5.73
2019-05-26T13:02:38.755Z,5.43
2019-05-26T13:05:07.654Z,5.03
2019-05-26T13:07:36.094Z,9.93
2019-05-26T13:10:08.984Z,8.80
2019-05-26T13:12:37.246Z,6.67
2019-05-26T13:15:07.402Z,7.37
2019-05-26T13:17:35.658Z,4.30
2019-05-26T13:20:08.631Z,5.90
2019-05-26T13:22:37.210Z,10.43
2019-05-26T13:25:07.016Z,7.87
2019-05-26T13:27:35.275Z,9.00
2019-05-26T13:30:07.983Z,6.87
2019-05-26T13:32:36.240Z,9.30
2019-05-26T13:35:07.210Z,7.27
2019-05-26T13:37:36.864Z,7.50
2019-05-26T13:40:06.814Z,9.63
2019-05-26T13:42:35.327Z,10.27
2019-05-26T13:45:19.400Z,4.93
2019-05-26T13:47:35.611Z,7.23
2019-05-26T13:50:05.184Z,8.43
2019-05-26T13:52:33.494Z,12.83
2019-05-26T13:55:01.808Z,8.17
2019-05-26T13:57:30.046Z,8.07
2019-05-26T13:59:58.979Z,9.27
2019-05-26T14:02:27.235Z,4.63
2019-05-26T14:04:55.512Z,5.93
2019-05-26T14:07:23.809Z,7.43
2019-05-26T14:09:52.139Z,10.13
2019-05-26T14:12:20.394Z,9.37
2019-05-26T14:14:48.940Z,6.07
2019-05-26T14:17:17.186Z,5.13
2019-05-26T14:19:45.462Z,5.17
2019-05-26T14:22:14.388Z,8.63
2019-05-26T14:24:53.240Z,3.33
2019-05-26T14:27:12.642Z,6.03
2019-05-26T14:29:40.907Z,8.17
2019-05-26T14:32:09.239Z,6.70
2019-05-26T14:34:37.510Z,3.77
2019-05-26T14:37:06.343Z,7.17
2019-05-26T14:39:34.607Z,5.67
2019-05-26T14:42:02.877Z,8.20
2019-05-26T14:44:31.365Z,6.73
2019-05-26T14:46:59.920Z,4.13
2019-05-26T14:49:28.180Z,4.23
2019-05-26T14:51:56.435Z,6.77
2019-05-26T14:54:25.266Z,4.00
2019-05-26T14:56:53.539Z,4.23
2019-05-26T14:59:21.795Z,5.77
2019-05-26T15:01:50.080Z,6.73
2019-05-26T15:04:18.353Z,10.10
2019-05-26T15:06:46.623Z,8.57
2019-05-26T15:09:24.891Z,3.00
2019-05-26T15:11:44.866Z,11.13
2019-05-26T15:14:13.129Z,6.67
2019-05-26T15:16:41.399Z,5.60
2019-05-26T15:19:09.650Z,8.27
2019-05-26T15:21:37.918Z,5.57
2019-05-26T15:24:06.171Z,4.63
2019-05-26T15:26:35.015Z,5.10
2019-05-26T15:29:03.272Z,6.63
2019-05-26T15:31:31.554Z,6.03
2019-05-26T15:33:59.823Z,8.20
2019-05-26T15:36:28.077Z,5.03
2019-05-26T15:38:56.862Z,13.17
2019-05-26T15:41:25.186Z,12.40
2019-05-26T15:43:53.474Z,4.90
2019-05-26T15:46:25.347Z,7.27
2019-05-26T15:48:53.052Z,8.90
2019-05-26T15:51:21.311Z,3.57
2019-05-26T15:53:49.580Z,6.37
2019-05-26T15:56:17.843Z,6.90
2019-05-26T15:58:46.106Z,5.97
2019-05-26T16:01:14.622Z,5.47
2019-05-26T16:03:43.459Z,6.73
2019-05-26T16:06:11.714Z,2.03
2019-05-26T16:08:39.979Z,4.40
2019-05-26T16:11:08.279Z,2.70
2019-05-26T16:13:36.542Z,3.77
2019-05-26T16:16:05.583Z,3.90
2019-05-26T16:18:33.842Z,6.27
2019-05-26T16:21:03.285Z,4.93
2019-05-26T16:23:31.939Z,5.23
2019-05-26T16:26:00.448Z,4.70
2019-05-26T16:28:30.293Z,3.70
2019-05-26T16:30:58.658Z,4.73
2019-05-26T16:33:26.957Z,5.83
2019-05-26T16:35:55.768Z,2.57
2019-05-26T16:38:24.242Z,3.07
2019-05-26T16:40:52.506Z,6.60
2019-05-26T16:43:21.493Z,5.67
2019-05-26T16:45:56.154Z,6.53
2019-05-26T16:48:20.760Z,5.60
2019-05-26T16:50:49.091Z,5.23
2019-05-26T16:53:17.419Z,5.97
2019-05-26T16:55:45.770Z,3.40
2019-05-26T16:58:14.031Z,6.77
2019-05-26T17:00:42.662Z,5.50
2019-05-26T17:03:11.011Z,4.37
2019-05-26T17:05:39.851Z,9.20
2019-05-26T17:08:08.126Z,9.03
2019-05-26T17:10:36.393Z,7.90
2019-05-26T17:13:04.718Z,6.73
2019-05-26T17:15:32.986Z,5.70
2019-05-26T17:18:01.237Z,4.27
2019-05-26T17:20:29.528Z,3.43
2019-05-26T17:22:57.852Z,7.63
2019-05-26T17:25:26.175Z,4.97
2019-05-26T17:27:54.432Z,5.07
2019-05-26T17:30:22.706Z,7.13
2019-05-26T17:32:51.106Z,5.83
2019-05-26T17:35:19.500Z,9.67
2019-05-26T17:37:48.124Z,8.27
2019-05-26T17:40:16.576Z,5.57
2019-05-26T17:42:44.898Z,5.10
2019-05-26T17:45:13.538Z,3.93
2019-05-26T17:47:41.794Z,5.93
2019-05-26T17:50:10.055Z,11.00
2019-05-26T17:52:38.575Z,6.50
2019-05-26T17:55:10.403Z,5.47
2019-05-26T17:57:38.768Z,7.13
2019-05-26T18:00:11.077Z,9.73
2019-05-26T18:02:39.444Z,10.57
2019-05-26T18:05:07.702Z,12.67
2019-05-26T18:07:35.959Z,8.63
2019-05-26T18:10:05.850Z,11.43
2019-05-26T18:12:34.146Z,12.37
2019-05-26T18:15:02.678Z,7.23
2019-05-26T18:17:45.824Z,10.67
2019-05-26T18:20:01.800Z,15.37
2019-05-26T18:22:30.212Z,18.27
2019-05-26T18:24:59.356Z,10.73
2019-05-26T18:27:28.039Z,7.20
2019-05-26T18:29:56.631Z,21.23
2019-05-26T18:32:24.959Z,14.63
2019-05-26T18:34:53.219Z,17.23
2019-05-26T18:37:21.499Z,13.37
2019-05-26T18:39:49.751Z,8.83
2019-05-26T18:42:18.017Z,9.87
2019-05-26T18:44:46.277Z,23.17
2019-05-26T18:47:14.548Z,18.20
2019-05-26T18:49:42.806Z,15.30
2019-05-26T18:52:11.071Z,9.43
2019-05-26T18:54:39.334Z,13.20
2019-05-26T18:57:07.610Z,12.40
2019-05-26T18:59:35.874Z,11.40
2019-05-26T19:02:04.128Z,7.37
2019-05-26T19:04:32.398Z,8.93
2019-05-26T19:07:00.655Z,9.77
2019-05-26T19:09:28.924Z,11.23
2019-05-26T19:11:57.187Z,13.23
2019-05-26T19:14:25.506Z,13.33
2019-05-26T19:16:53.840Z,10.87
2019-05-26T19:19:22.180Z,8.63
2019-05-26T19:21:50.438Z,13.23
2019-05-26T19:24:18.708Z,13.73
2019-05-26T19:26:46.958Z,9.53
2019-05-26T19:29:15.237Z,9.90
2019-05-26T19:31:43.493Z,10.43
2019-05-26T19:34:11.760Z,16.37
2019-05-26T19:36:40.010Z,8.33
2019-05-26T19:39:09.687Z,9.93
2019-05-26T19:41:39.251Z,10.43
2019-05-26T19:44:08.174Z,9.83
2019-05-26T19:46:36.438Z,10.53
2019-05-26T19:49:05.267Z,10.47
2019-05-26T19:51:33.528Z,14.73
2019-05-26T19:54:02.697Z,17.97
2019-05-26T19:56:30.959Z,14.97
2019-05-26T19:58:59.399Z,16.67
2019-05-26T20:01:27.658Z,13.00
2019-05-26T20:03:55.931Z,18.50
2019-05-26T20:06:24.190Z,14.00
2019-05-26T20:08:52.458Z,11.93
2019-05-26T20:11:20.715Z,13.07
2019-05-26T20:13:48.971Z,12.17
2019-05-26T20:16:17.238Z,12.93
2019-05-26T20:18:45.853Z,15.93
2019-05-26T20:21:14.174Z,12.90
2019-05-26T20:23:42.507Z,11.50
2019-05-26T20:26:10.775Z,12.90
2019-05-26T20:28:39.082Z,12.57
2019-05-26T20:31:07.352Z,12.07
2019-05-26T20:33:35.610Z,14.50
2019-05-26T20:36:04.197Z,11.53
2019-05-26T20:38:32.455Z,10.77
2019-05-26T20:41:00.900Z,12.13
2019-05-26T20:43:29.434Z,9.00
2019-05-26T20:45:57.704Z,11.87
2019-05-26T20:48:25.983Z,12.50
2019-05-26T20:50:54.255Z,11.07
2019-05-26T20:53:22.561Z,11.87
2019-05-26T20:55:50.832Z,12.47
2019-05-26T20:58:19.388Z,7.90
2019-05-26T21:00:47.656Z,10.43
2019-05-26T21:03:15.929Z,13.57
2019-05-26T21:05:44.254Z,10.93
2019-05-26T21:08:12.511Z,11.60
2019-05-26T21:10:40.803Z,13.07
2019-05-26T21:13:09.058Z,9.63
2019-05-26T21:15:38.706Z,11.30
2019-05-26T21:18:06.967Z,8.27
2019-05-26T21:20:36.620Z,6.60
2019-05-26T21:23:04.866Z,9.07
2019-05-26T21:25:33.128Z,8.07
2019-05-26T21:28:01.383Z,9.00
2019-05-26T21:30:29.646Z,6.37
2019-05-26T21:32:57.914Z,11.23
2019-05-26T21:35:26.172Z,8.03
2019-05-26T21:37:54.498Z,6.63
2019-05-26T21:40:22.754Z,6.53
2019-05-26T21:42:51.102Z,9.50
2019-05-26T21:45:19.358Z,10.20
2019-05-26T21:47:47.622Z,5.33
2019-05-26T21:50:17.060Z,9.70
2019-05-26T21:52:45.326Z,7.13
2019-05-26T21:55:13.918Z,6.43
2019-05-26T21:57:42.179Z,7.90
2019-05-26T22:00:12.015Z,8.47
2019-05-26T22:02:40.349Z,7.93
2019-05-26T22:05:08.609Z,7.30
2019-05-26T22:07:36.878Z,6.20
2019-05-26T22:10:06.375Z,5.03
2019-05-26T22:12:34.643Z,9.43
2019-05-26T22:15:02.907Z,10.97
2019-05-26T22:17:31.171Z,6.13
2019-05-26T22:19:59.435Z,7.50
2019-05-26T22:22:28.015Z,7.87
2019-05-26T22:24:56.271Z,5.90
2019-05-26T22:27:24.543Z,8.23
2019-05-26T22:29:52.806Z,8.93
2019-05-26T22:32:21.162Z,9.67
2019-05-26T22:34:49.423Z,6.83
2019-05-26T22:37:17.690Z,3.93
2019-05-26T22:39:45.950Z,10.90
2019-05-26T22:42:14.210Z,4.43
2019-05-26T22:44:42.469Z,7.67
2019-05-26T22:47:10.734Z,8.20
2019-05-26T22:49:39.003Z,3.43
2019-05-26T22:52:07.262Z,6.90
2019-05-26T22:54:35.520Z,7.10
2019-05-26T22:57:03.778Z,5.87
2019-05-26T22:59:32.042Z,7.10
2019-05-26T23:02:00.332Z,8.63
2019-05-26T23:04:28.651Z,6.47
2019-05-26T23:06:56.909Z,7.30
2019-05-26T23:09:25.211Z,7.90
2019-05-26T23:11:53.523Z,6.27
2019-05-26T23:14:21.795Z,4.90
2019-05-26T23:16:50.058Z,6.87
2019-05-26T23:19:20.054Z,8.47
2019-05-26T23:21:48.339Z,5.63
2019-05-26T23:24:16.610Z,8.07
2019-05-26T23:26:44.862Z,4.43
2019-05-26T23:29:13.135Z,5.13
2019-05-26T23:31:41.387Z,5.13
2019-05-26T23:34:09.659Z,9.37
2019-05-26T23:36:37.989Z,6.03
2019-05-26T23:39:06.790Z,7.70
2019-05-26T23:41:35.102Z,8.17
2019-05-26T23:44:03.370Z,6.40
2019-05-26T23:46:32.383Z,4.37
2019-05-26T23:49:00.671Z,4.93
2019-05-26T23:51:28.915Z,4.73
2019-05-26T23:53:59.026Z,7.80
2019-05-26T23:56:27.282Z,7.07
2019-05-26T23:58:55.573Z,5.57
